sensor_id;sensor_type;location;lat;lon;timestamp;temperature;humidity
14850;DHT22;7517;48.400;11.770;2023-06-22T00:02:23;24.40;67.30
14850;DHT22;7517;48.400;11.770;2023-06-22T00:04:50;24.40;67.30
14850;DHT22;7517;48.400;11.770;2023-06-22T00:07:17;24.40;67.30
14850;DHT22;7517;48.400;11.770;2023-06-22T00:09:45;24.30;67.40
14850;DHT22;7517;48.400;11.770;2023-06-22T00:12:12;24.30;67.40
14850;DHT22;7517;48.400;11.770;2023-06-22T00:14:40;24.40;67.50
14850;DHT22;7517;48.400;11.770;2023-06-22T00:17:07;24.30;67.70
14850;DHT22;7517;48.400;11.770;2023-06-22T00:19:35;24.30;67.70
14850;DHT22;7517;48.400;11.770;2023-06-22T00:22:02;24.30;67.80
14850;DHT22;7517;48.400;11.770;2023-06-22T00:24:30;24.30;67.90
14850;DHT22;7517;48.400;11.770;2023-06-22T00:26:57;24.20;68.00
14850;DHT22;7517;48.400;11.770;2023-06-22T00:29:24;24.20;68.00
14850;DHT22;7517;48.400;11.770;2023-06-22T00:31:52;24.20;68.00
14850;DHT22;7517;48.400;11.770;2023-06-22T00:34:19;24.20;68.10
14850;DHT22;7517;48.400;11.770;2023-06-22T00:36:46;24.20;68.00
14850;DHT22;7517;48.400;11.770;2023-06-22T00:39:13;24.20;68.00
14850;DHT22;7517;48.400;11.770;2023-06-22T00:41:41;24.20;68.00
14850;DHT22;7517;48.400;11.770;2023-06-22T00:44:08;24.20;68.10
14850;DHT22;7517;48.400;11.770;2023-06-22T00:46:35;24.10;68.00
14850;DHT22;7517;48.400;11.770;2023-06-22T00:49:04;24.10;68.10
14850;DHT22;7517;48.400;11.770;2023-06-22T00:51:31;24.10;68.20
14850;DHT22;7517;48.400;11.770;2023-06-22T00:53:59;24.10;68.20
14850;DHT22;7517;48.400;11.770;2023-06-22T00:56:26;24.10;68.30
14850;DHT22;7517;48.400;11.770;2023-06-22T00:58:55;24.10;68.30
14850;DHT22;7517;48.400;11.770;2023-06-22T01:01:25;24.00;68.30
14850;DHT22;7517;48.400;11.770;2023-06-22T01:03:52;24.00;68.30
14850;DHT22;7517;48.400;11.770;2023-06-22T01:06:28;24.00;68.40
14850;DHT22;7517;48.400;11.770;2023-06-22T01:09:08;24.00;68.60
14850;DHT22;7517;48.400;11.770;2023-06-22T01:11:44;24.00;68.50
14850;DHT22;7517;48.400;11.770;2023-06-22T01:14:19;24.00;68.40
14850;DHT22;7517;48.400;11.770;2023-06-22T01:16:51;24.00;68.60
14850;DHT22;7517;48.400;11.770;2023-06-22T01:19:35;23.90;68.50
14850;DHT22;7517;48.400;11.770;2023-06-22T01:22:10;23.90;68.80
14850;DHT22;7517;48.400;11.770;2023-06-22T01:24:47;23.90;68.60
14850;DHT22;7517;48.400;11.770;2023-06-22T01:27:33;23.90;68.70
14850;DHT22;7517;48.400;11.770;2023-06-22T01:30:10;23.90;68.80
14850;DHT22;7517;48.400;11.770;2023-06-22T01:32:41;23.90;68.60
14850;DHT22;7517;48.400;11.770;2023-06-22T01:35:10;23.90;68.50
14850;DHT22;7517;48.400;11.770;2023-06-22T01:37:38;23.90;68.60
14850;DHT22;7517;48.400;11.770;2023-06-22T01:40:07;23.80;68.50
14850;DHT22;7517;48.400;11.770;2023-06-22T01:42:36;23.80;68.60
14850;DHT22;7517;48.400;11.770;2023-06-22T01:45:05;23.80;68.50
14850;DHT22;7517;48.400;11.770;2023-06-22T01:47:38;23.80;68.60
14850;DHT22;7517;48.400;11.770;2023-06-22T01:50:06;23.80;68.70
14850;DHT22;7517;48.400;11.770;2023-06-22T01:52:36;23.70;68.70
14850;DHT22;7517;48.400;11.770;2023-06-22T01:55:04;23.70;68.80
14850;DHT22;7517;48.400;11.770;2023-06-22T01:57:34;23.70;68.90
14850;DHT22;7517;48.400;11.770;2023-06-22T02:00:06;23.60;69.00
14850;DHT22;7517;48.400;11.770;2023-06-22T02:02:45;23.60;69.00
14850;DHT22;7517;48.400;11.770;2023-06-22T02:05:19;23.60;69.10
14850;DHT22;7517;48.400;11.770;2023-06-22T02:07:56;23.60;69.00
14850;DHT22;7517;48.400;11.770;2023-06-22T02:10:31;23.60;69.10
14850;DHT22;7517;48.400;11.770;2023-06-22T02:12:59;23.60;69.10
14850;DHT22;7517;48.400;11.770;2023-06-22T02:15:29;23.50;69.10
14850;DHT22;7517;48.400;11.770;2023-06-22T02:17:59;23.50;69.20
14850;DHT22;7517;48.400;11.770;2023-06-22T02:20:27;23.50;69.40
14850;DHT22;7517;48.400;11.770;2023-06-22T02:22:54;23.50;69.30
14850;DHT22;7517;48.400;11.770;2023-06-22T02:25:21;23.40;69.40
14850;DHT22;7517;48.400;11.770;2023-06-22T02:27:48;23.40;69.50
14850;DHT22;7517;48.400;11.770;2023-06-22T02:30:16;23.40;69.60
14850;DHT22;7517;48.400;11.770;2023-06-22T02:32:43;23.40;69.70
14850;DHT22;7517;48.400;11.770;2023-06-22T02:35:12;23.40;70.00
14850;DHT22;7517;48.400;11.770;2023-06-22T02:37:39;23.40;70.20
14850;DHT22;7517;48.400;11.770;2023-06-22T02:40:08;23.40;70.30
14850;DHT22;7517;48.400;11.770;2023-06-22T02:42:36;23.40;70.40
14850;DHT22;7517;48.400;11.770;2023-06-22T02:45:05;23.40;70.50
14850;DHT22;7517;48.400;11.770;2023-06-22T02:47:32;23.30;70.60
14850;DHT22;7517;48.400;11.770;2023-06-22T02:50:02;23.30;70.70
14850;DHT22;7517;48.400;11.770;2023-06-22T02:52:30;23.30;70.80
14850;DHT22;7517;48.400;11.770;2023-06-22T02:54:58;23.30;71.00
14850;DHT22;7517;48.400;11.770;2023-06-22T02:57:25;23.30;71.00
14850;DHT22;7517;48.400;11.770;2023-06-22T02:59:52;23.30;71.00
14850;DHT22;7517;48.400;11.770;2023-06-22T03:02:20;23.30;71.90
14850;DHT22;7517;48.400;11.770;2023-06-22T03:04:48;23.30;71.30
14850;DHT22;7517;48.400;11.770;2023-06-22T03:07:15;23.30;71.20
14850;DHT22;7517;48.400;11.770;2023-06-22T03:09:45;23.30;71.20
14850;DHT22;7517;48.400;11.770;2023-06-22T03:12:12;23.30;71.30
14850;DHT22;7517;48.400;11.770;2023-06-22T03:14:39;23.30;71.10
14850;DHT22;7517;48.400;11.770;2023-06-22T03:17:06;23.40;71.20
14850;DHT22;7517;48.400;11.770;2023-06-22T03:19:34;23.40;71.90
14850;DHT22;7517;48.400;11.770;2023-06-22T03:22:01;23.40;71.30
14850;DHT22;7517;48.400;11.770;2023-06-22T03:24:28;23.40;71.30
14850;DHT22;7517;48.400;11.770;2023-06-22T03:26:57;23.40;71.20
14850;DHT22;7517;48.400;11.770;2023-06-22T03:29:24;23.40;71.40
14850;DHT22;7517;48.400;11.770;2023-06-22T03:31:51;23.40;71.30
14850;DHT22;7517;48.400;11.770;2023-06-22T03:34:18;23.40;71.30
14850;DHT22;7517;48.400;11.770;2023-06-22T03:36:46;23.40;71.30
14850;DHT22;7517;48.400;11.770;2023-06-22T03:39:13;23.40;71.30
14850;DHT22;7517;48.400;11.770;2023-06-22T03:41:40;23.40;71.30
14850;DHT22;7517;48.400;11.770;2023-06-22T03:44:08;23.40;71.30
14850;DHT22;7517;48.400;11.770;2023-06-22T03:46:37;23.40;71.40
14850;DHT22;7517;48.400;11.770;2023-06-22T03:49:05;23.50;71.40
14850;DHT22;7517;48.400;11.770;2023-06-22T03:51:32;23.50;71.50
14850;DHT22;7517;48.400;11.770;2023-06-22T03:54:00;23.40;71.50
14850;DHT22;7517;48.400;11.770;2023-06-22T03:56:27;23.50;71.60
14850;DHT22;7517;48.400;11.770;2023-06-22T03:58:54;23.50;71.60
14850;DHT22;7517;48.400;11.770;2023-06-22T04:01:23;23.40;71.70
14850;DHT22;7517;48.400;11.770;2023-06-22T04:03:50;23.50;71.90
14850;DHT22;7517;48.400;11.770;2023-06-22T04:06:18;23.40;71.80
14850;DHT22;7517;48.400;11.770;2023-06-22T04:08:45;23.40;71.80
14850;DHT22;7517;48.400;11.770;2023-06-22T04:11:16;23.50;72.00
14850;DHT22;7517;48.400;11.770;2023-06-22T04:13:44;23.40;72.00
14850;DHT22;7517;48.400;11.770;2023-06-22T04:16:11;23.50;72.20
14850;DHT22;7517;48.400;11.770;2023-06-22T04:18:40;23.50;72.30
14850;DHT22;7517;48.400;11.770;2023-06-22T04:21:07;23.50;72.40
14850;DHT22;7517;48.400;11.770;2023-06-22T04:23:34;23.50;72.40
14850;DHT22;7517;48.400;11.770;2023-06-22T04:26:01;23.50;72.40
14850;DHT22;7517;48.400;11.770;2023-06-22T04:28:29;23.50;72.60
14850;DHT22;7517;48.400;11.770;2023-06-22T04:31:00;23.50;72.50
14850;DHT22;7517;48.400;11.770;2023-06-22T04:33:28;23.60;72.60
14850;DHT22;7517;48.400;11.770;2023-06-22T04:35:57;23.60;72.60
14850;DHT22;7517;48.400;11.770;2023-06-22T04:38:26;23.60;72.80
14850;DHT22;7517;48.400;11.770;2023-06-22T04:40:54;23.60;72.70
14850;DHT22;7517;48.400;11.770;2023-06-22T04:43:21;23.60;73.40
14850;DHT22;7517;48.400;11.770;2023-06-22T04:45:48;23.60;72.70
14850;DHT22;7517;48.400;11.770;2023-06-22T04:48:17;23.70;72.90
14850;DHT22;7517;48.400;11.770;2023-06-22T04:50:50;23.70;72.90
14850;DHT22;7517;48.400;11.770;2023-06-22T04:53:18;23.70;72.80
14850;DHT22;7517;48.400;11.770;2023-06-22T04:55:49;23.70;72.90
14850;DHT22;7517;48.400;11.770;2023-06-22T04:58:21;23.80;73.00
14850;DHT22;7517;48.400;11.770;2023-06-22T05:00:48;23.80;73.00
14850;DHT22;7517;48.400;11.770;2023-06-22T05:03:27;23.80;73.00
14850;DHT22;7517;48.400;11.770;2023-06-22T05:05:57;23.80;73.50
14850;DHT22;7517;48.400;11.770;2023-06-22T05:08:28;23.80;73.10
14850;DHT22;7517;48.400;11.770;2023-06-22T05:10:57;23.90;73.40
14850;DHT22;7517;48.400;11.770;2023-06-22T05:13:27;23.90;73.20
14850;DHT22;7517;48.400;11.770;2023-06-22T05:15:54;23.90;73.30
14850;DHT22;7517;48.400;11.770;2023-06-22T05:18:29;24.00;73.30
14850;DHT22;7517;48.400;11.770;2023-06-22T05:21:05;24.00;73.30
14850;DHT22;7517;48.400;11.770;2023-06-22T05:23:36;24.00;73.50
14850;DHT22;7517;48.400;11.770;2023-06-22T05:26:11;24.00;73.20
14850;DHT22;7517;48.400;11.770;2023-06-22T05:28:44;24.00;73.20
14850;DHT22;7517;48.400;11.770;2023-06-22T05:31:15;24.10;73.30
14850;DHT22;7517;48.400;11.770;2023-06-22T05:33:45;24.10;73.50
14850;DHT22;7517;48.400;11.770;2023-06-22T05:36:13;24.10;73.30
14850;DHT22;7517;48.400;11.770;2023-06-22T05:38:42;24.20;73.10
14850;DHT22;7517;48.400;11.770;2023-06-22T05:41:09;24.20;73.20
14850;DHT22;7517;48.400;11.770;2023-06-22T05:43:37;24.30;73.20
14850;DHT22;7517;48.400;11.770;2023-06-22T05:46:04;24.30;73.10
14850;DHT22;7517;48.400;11.770;2023-06-22T05:48:31;24.30;73.10
14850;DHT22;7517;48.400;11.770;2023-06-22T05:51:01;24.40;73.10
14850;DHT22;7517;48.400;11.770;2023-06-22T05:53:28;24.40;73.00
14850;DHT22;7517;48.400;11.770;2023-06-22T05:55:57;24.50;73.20
14850;DHT22;7517;48.400;11.770;2023-06-22T05:58:24;24.50;73.20
14850;DHT22;7517;48.400;11.770;2023-06-22T06:00:51;24.60;73.10
14850;DHT22;7517;48.400;11.770;2023-06-22T06:03:19;24.60;72.90
14850;DHT22;7517;48.400;11.770;2023-06-22T06:05:46;24.60;72.90
14850;DHT22;7517;48.400;11.770;2023-06-22T06:08:13;24.70;72.90
14850;DHT22;7517;48.400;11.770;2023-06-22T06:10:40;24.70;72.70
14850;DHT22;7517;48.400;11.770;2023-06-22T06:13:09;24.70;72.60
14850;DHT22;7517;48.400;11.770;2023-06-22T06:15:37;24.80;72.60
14850;DHT22;7517;48.400;11.770;2023-06-22T06:18:05;24.80;72.60
14850;DHT22;7517;48.400;11.770;2023-06-22T06:20:33;24.90;72.50
14850;DHT22;7517;48.400;11.770;2023-06-22T06:23:01;24.90;72.40
14850;DHT22;7517;48.400;11.770;2023-06-22T06:25:28;25.00;72.30
14850;DHT22;7517;48.400;11.770;2023-06-22T06:27:55;25.10;72.20
14850;DHT22;7517;48.400;11.770;2023-06-22T06:30:24;25.10;72.00
14850;DHT22;7517;48.400;11.770;2023-06-22T06:32:51;25.20;71.60
14850;DHT22;7517;48.400;11.770;2023-06-22T06:35:18;25.20;71.50
14850;DHT22;7517;48.400;11.770;2023-06-22T06:37:49;25.30;71.40
14850;DHT22;7517;48.400;11.770;2023-06-22T06:40:18;25.30;71.40
14850;DHT22;7517;48.400;11.770;2023-06-22T06:42:46;25.40;71.10
14850;DHT22;7517;48.400;11.770;2023-06-22T06:45:17;25.40;71.00
14850;DHT22;7517;48.400;11.770;2023-06-22T06:47:49;25.50;70.80
14850;DHT22;7517;48.400;11.770;2023-06-22T06:50:18;25.60;70.80
14850;DHT22;7517;48.400;11.770;2023-06-22T06:52:45;25.60;70.10
14850;DHT22;7517;48.400;11.770;2023-06-22T06:55:13;25.70;69.80
14850;DHT22;7517;48.400;11.770;2023-06-22T06:57:40;25.80;70.10
14850;DHT22;7517;48.400;11.770;2023-06-22T07:00:10;25.80;70.00
14850;DHT22;7517;48.400;11.770;2023-06-22T07:02:40;25.90;70.20
14850;DHT22;7517;48.400;11.770;2023-06-22T07:05:10;26.00;70.40
14850;DHT22;7517;48.400;11.770;2023-06-22T07:07:39;26.10;70.20
14850;DHT22;7517;48.400;11.770;2023-06-22T07:10:08;26.20;70.10
14850;DHT22;7517;48.400;11.770;2023-06-22T07:12:36;26.30;69.80
14850;DHT22;7517;48.400;11.770;2023-06-22T07:15:04;26.50;69.70
14850;DHT22;7517;48.400;11.770;2023-06-22T07:17:33;26.60;69.80
14850;DHT22;7517;48.400;11.770;2023-06-22T07:20:00;26.70;69.60
14850;DHT22;7517;48.400;11.770;2023-06-22T07:22:32;26.80;69.40
14850;DHT22;7517;48.400;11.770;2023-06-22T07:24:59;26.90;69.20
14850;DHT22;7517;48.400;11.770;2023-06-22T07:27:26;27.10;68.50
14850;DHT22;7517;48.400;11.770;2023-06-22T07:30:03;27.20;68.00
14850;DHT22;7517;48.400;11.770;2023-06-22T07:32:32;27.40;67.30
14850;DHT22;7517;48.400;11.770;2023-06-22T07:35:00;27.50;66.50
14850;DHT22;7517;48.400;11.770;2023-06-22T07:37:31;27.60;66.30
14850;DHT22;7517;48.400;11.770;2023-06-22T07:40:00;27.70;66.10
14850;DHT22;7517;48.400;11.770;2023-06-22T07:42:31;27.80;65.60
14850;DHT22;7517;48.400;11.770;2023-06-22T07:45:00;28.00;65.10
14850;DHT22;7517;48.400;11.770;2023-06-22T07:47:28;28.10;64.80
14850;DHT22;7517;48.400;11.770;2023-06-22T07:49:58;28.30;64.10
14850;DHT22;7517;48.400;11.770;2023-06-22T07:52:26;28.40;63.30
14850;DHT22;7517;48.400;11.770;2023-06-22T07:54:56;28.50;63.10
14850;DHT22;7517;48.400;11.770;2023-06-22T07:57:23;28.70;62.40
14850;DHT22;7517;48.400;11.770;2023-06-22T07:59:57;28.80;62.30
14850;DHT22;7517;48.400;11.770;2023-06-22T08:02:25;28.90;62.30
14850;DHT22;7517;48.400;11.770;2023-06-22T08:04:53;29.10;61.40
14850;DHT22;7517;48.400;11.770;2023-06-22T08:07:20;29.20;61.60
14850;DHT22;7517;48.400;11.770;2023-06-22T08:09:48;29.30;60.90
14850;DHT22;7517;48.400;11.770;2023-06-22T08:12:17;29.50;60.60
14850;DHT22;7517;48.400;11.770;2023-06-22T08:14:45;29.60;60.00
14850;DHT22;7517;48.400;11.770;2023-06-22T08:17:13;29.70;59.80
14850;DHT22;7517;48.400;11.770;2023-06-22T08:19:40;29.80;59.50
14850;DHT22;7517;48.400;11.770;2023-06-22T08:22:07;30.00;59.20
14850;DHT22;7517;48.400;11.770;2023-06-22T08:24:35;30.10;59.30
14850;DHT22;7517;48.400;11.770;2023-06-22T08:27:03;30.30;59.10
14850;DHT22;7517;48.400;11.770;2023-06-22T08:29:35;30.40;58.50
14850;DHT22;7517;48.400;11.770;2023-06-22T08:32:03;30.50;58.30
14850;DHT22;7517;48.400;11.770;2023-06-22T08:34:31;30.70;58.30
14850;DHT22;7517;48.400;11.770;2023-06-22T08:36:58;30.80;57.90
14850;DHT22;7517;48.400;11.770;2023-06-22T08:39:25;30.90;57.20
14850;DHT22;7517;48.400;11.770;2023-06-22T08:41:53;31.00;57.30
14850;DHT22;7517;48.400;11.770;2023-06-22T08:44:20;31.20;56.90
14850;DHT22;7517;48.400;11.770;2023-06-22T08:46:49;31.30;56.60
14850;DHT22;7517;48.400;11.770;2023-06-22T08:49:16;31.40;56.10
14850;DHT22;7517;48.400;11.770;2023-06-22T08:51:44;31.60;56.10
14850;DHT22;7517;48.400;11.770;2023-06-22T08:54:13;31.70;56.70
14850;DHT22;7517;48.400;11.770;2023-06-22T08:56:40;31.90;55.80
14850;DHT22;7517;48.400;11.770;2023-06-22T08:59:09;32.00;55.10
14850;DHT22;7517;48.400;11.770;2023-06-22T09:01:36;32.10;55.10
14850;DHT22;7517;48.400;11.770;2023-06-22T09:04:05;32.20;54.70
14850;DHT22;7517;48.400;11.770;2023-06-22T09:06:35;32.30;54.40
14850;DHT22;7517;48.400;11.770;2023-06-22T09:09:06;32.50;54.20
14850;DHT22;7517;48.400;11.770;2023-06-22T09:11:34;32.50;53.90
14850;DHT22;7517;48.400;11.770;2023-06-22T09:14:01;32.70;53.50
14850;DHT22;7517;48.400;11.770;2023-06-22T09:16:29;32.70;53.30
14850;DHT22;7517;48.400;11.770;2023-06-22T09:18:57;32.80;52.90
14850;DHT22;7517;48.400;11.770;2023-06-22T09:21:26;32.90;52.10
14850;DHT22;7517;48.400;11.770;2023-06-22T09:23:53;33.00;52.00
14850;DHT22;7517;48.400;11.770;2023-06-22T09:26:21;33.00;52.10
14850;DHT22;7517;48.400;11.770;2023-06-22T09:28:49;33.10;52.30
14850;DHT22;7517;48.400;11.770;2023-06-22T09:31:17;33.20;52.20
14850;DHT22;7517;48.400;11.770;2023-06-22T09:33:51;33.20;52.00
14850;DHT22;7517;48.400;11.770;2023-06-22T09:36:19;33.30;51.80
14850;DHT22;7517;48.400;11.770;2023-06-22T09:38:49;33.40;51.80
14850;DHT22;7517;48.400;11.770;2023-06-22T09:41:20;33.50;51.30
14850;DHT22;7517;48.400;11.770;2023-06-22T09:43:48;33.60;51.50
14850;DHT22;7517;48.400;11.770;2023-06-22T09:46:16;33.80;51.60
14850;DHT22;7517;48.400;11.770;2023-06-22T09:48:45;33.90;51.00
14850;DHT22;7517;48.400;11.770;2023-06-22T09:51:13;34.10;50.80
14850;DHT22;7517;48.400;11.770;2023-06-22T09:53:40;34.30;50.30
14850;DHT22;7517;48.400;11.770;2023-06-22T09:56:09;34.40;50.40
14850;DHT22;7517;48.400;11.770;2023-06-22T09:58:40;34.60;50.10
14850;DHT22;7517;48.400;11.770;2023-06-22T10:01:09;34.80;49.70
14850;DHT22;7517;48.400;11.770;2023-06-22T10:03:36;35.10;49.70
14850;DHT22;7517;48.400;11.770;2023-06-22T10:06:04;35.20;49.30
14850;DHT22;7517;48.400;11.770;2023-06-22T10:08:32;35.50;49.20
14850;DHT22;7517;48.400;11.770;2023-06-22T10:10:59;35.70;48.80
14850;DHT22;7517;48.400;11.770;2023-06-22T10:13:28;35.90;48.40
14850;DHT22;7517;48.400;11.770;2023-06-22T10:15:55;36.10;47.80
14850;DHT22;7517;48.400;11.770;2023-06-22T10:18:22;36.20;47.00
14850;DHT22;7517;48.400;11.770;2023-06-22T10:20:53;36.40;47.00
14850;DHT22;7517;48.400;11.770;2023-06-22T10:23:20;36.50;46.80
14850;DHT22;7517;48.400;11.770;2023-06-22T10:25:49;36.60;47.10
14850;DHT22;7517;48.400;11.770;2023-06-22T10:28:16;36.80;47.10
14850;DHT22;7517;48.400;11.770;2023-06-22T10:30:44;36.90;47.00
14850;DHT22;7517;48.400;11.770;2023-06-22T10:33:12;37.10;46.60
14850;DHT22;7517;48.400;11.770;2023-06-22T10:35:39;37.20;46.30
14850;DHT22;7517;48.400;11.770;2023-06-22T10:38:07;37.30;45.90
14850;DHT22;7517;48.400;11.770;2023-06-22T10:40:34;37.40;45.20
14850;DHT22;7517;48.400;11.770;2023-06-22T10:43:02;37.40;45.70
14850;DHT22;7517;48.400;11.770;2023-06-22T10:45:29;37.50;45.50
14850;DHT22;7517;48.400;11.770;2023-06-22T10:47:58;37.60;44.60
14850;DHT22;7517;48.400;11.770;2023-06-22T10:50:25;37.70;44.90
14850;DHT22;7517;48.400;11.770;2023-06-22T10:52:54;37.70;44.70
14850;DHT22;7517;48.400;11.770;2023-06-22T10:55:23;37.80;44.40
14850;DHT22;7517;48.400;11.770;2023-06-22T10:57:50;37.80;44.50
14850;DHT22;7517;48.400;11.770;2023-06-22T11:00:18;37.80;44.20
14850;DHT22;7517;48.400;11.770;2023-06-22T11:02:47;37.80;43.80
14850;DHT22;7517;48.400;11.770;2023-06-22T11:05:16;37.80;43.70
14850;DHT22;7517;48.400;11.770;2023-06-22T11:07:43;37.70;43.60
14850;DHT22;7517;48.400;11.770;2023-06-22T11:10:11;37.60;44.00
14850;DHT22;7517;48.400;11.770;2023-06-22T11:12:38;37.50;43.70
14850;DHT22;7517;48.400;11.770;2023-06-22T11:15:07;37.40;43.70
14850;DHT22;7517;48.400;11.770;2023-06-22T11:17:35;37.30;43.80
14850;DHT22;7517;48.400;11.770;2023-06-22T11:20:03;37.20;43.40
14850;DHT22;7517;48.400;11.770;2023-06-22T11:22:37;37.10;43.50
14850;DHT22;7517;48.400;11.770;2023-06-22T11:25:05;37.00;43.30
14850;DHT22;7517;48.400;11.770;2023-06-22T11:27:34;36.90;43.20
14850;DHT22;7517;48.400;11.770;2023-06-22T11:30:01;36.80;43.00
14850;DHT22;7517;48.400;11.770;2023-06-22T11:32:29;36.70;43.20
14850;DHT22;7517;48.400;11.770;2023-06-22T11:34:57;36.60;42.80
14850;DHT22;7517;48.400;11.770;2023-06-22T11:37:24;36.60;42.80
14850;DHT22;7517;48.400;11.770;2023-06-22T11:39:53;36.50;43.60
14850;DHT22;7517;48.400;11.770;2023-06-22T11:42:22;36.50;43.60
14850;DHT22;7517;48.400;11.770;2023-06-22T11:44:50;36.40;44.00
14850;DHT22;7517;48.400;11.770;2023-06-22T11:47:18;36.40;44.10
14850;DHT22;7517;48.400;11.770;2023-06-22T11:49:46;36.30;43.70
14850;DHT22;7517;48.400;11.770;2023-06-22T11:52:13;36.20;44.60
14850;DHT22;7517;48.400;11.770;2023-06-22T11:54:43;36.20;44.20
14850;DHT22;7517;48.400;11.770;2023-06-22T11:57:12;36.20;44.50
14850;DHT22;7517;48.400;11.770;2023-06-22T11:59:40;36.10;44.70
14850;DHT22;7517;48.400;11.770;2023-06-22T12:02:07;36.10;44.90
14850;DHT22;7517;48.400;11.770;2023-06-22T12:04:35;36.00;44.90
14850;DHT22;7517;48.400;11.770;2023-06-22T12:07:03;36.00;44.70
14850;DHT22;7517;48.400;11.770;2023-06-22T12:09:31;36.00;44.40
14850;DHT22;7517;48.400;11.770;2023-06-22T12:11:58;35.90;44.40
14850;DHT22;7517;48.400;11.770;2023-06-22T12:14:27;36.00;44.20
14850;DHT22;7517;48.400;11.770;2023-06-22T12:16:54;35.90;44.90
14850;DHT22;7517;48.400;11.770;2023-06-22T12:19:22;35.90;44.60
14850;DHT22;7517;48.400;11.770;2023-06-22T12:21:49;35.90;44.70
14850;DHT22;7517;48.400;11.770;2023-06-22T12:24:17;35.80;44.50
14850;DHT22;7517;48.400;11.770;2023-06-22T12:26:44;35.80;44.70
14850;DHT22;7517;48.400;11.770;2023-06-22T12:29:11;35.80;44.30
14850;DHT22;7517;48.400;11.770;2023-06-22T12:31:40;35.80;44.20
14850;DHT22;7517;48.400;11.770;2023-06-22T12:34:10;35.80;44.30
14850;DHT22;7517;48.400;11.770;2023-06-22T12:36:37;35.80;44.60
14850;DHT22;7517;48.400;11.770;2023-06-22T12:39:04;35.80;44.80
14850;DHT22;7517;48.400;11.770;2023-06-22T12:41:31;35.80;44.90
14850;DHT22;7517;48.400;11.770;2023-06-22T12:43:59;35.80;45.00
14850;DHT22;7517;48.400;11.770;2023-06-22T12:46:26;35.80;45.10
14850;DHT22;7517;48.400;11.770;2023-06-22T12:48:57;35.80;45.30
14850;DHT22;7517;48.400;11.770;2023-06-22T12:51:26;35.70;45.40
14850;DHT22;7517;48.400;11.770;2023-06-22T12:53:54;35.70;45.60
14850;DHT22;7517;48.400;11.770;2023-06-22T12:56:21;35.80;45.40
14850;DHT22;7517;48.400;11.770;2023-06-22T12:58:49;35.80;44.80
14850;DHT22;7517;48.400;11.770;2023-06-22T13:01:16;35.80;44.60
14850;DHT22;7517;48.400;11.770;2023-06-22T13:03:44;35.90;45.20
14850;DHT22;7517;48.400;11.770;2023-06-22T13:06:13;35.90;44.60
14850;DHT22;7517;48.400;11.770;2023-06-22T13:08:40;35.90;44.50
14850;DHT22;7517;48.400;11.770;2023-06-22T13:11:07;36.00;44.50
14850;DHT22;7517;48.400;11.770;2023-06-22T13:13:35;36.00;44.20
14850;DHT22;7517;48.400;11.770;2023-06-22T13:16:02;36.00;44.00
14850;DHT22;7517;48.400;11.770;2023-06-22T13:18:29;36.00;44.40
14850;DHT22;7517;48.400;11.770;2023-06-22T13:20:58;36.00;44.40
14850;DHT22;7517;48.400;11.770;2023-06-22T13:23:27;36.10;44.70
14850;DHT22;7517;48.400;11.770;2023-06-22T13:25:54;36.10;44.80
14850;DHT22;7517;48.400;11.770;2023-06-22T13:28:21;36.10;44.60
14850;DHT22;7517;48.400;11.770;2023-06-22T13:30:48;36.10;44.60
14850;DHT22;7517;48.400;11.770;2023-06-22T13:33:16;36.10;44.20
14850;DHT22;7517;48.400;11.770;2023-06-22T13:35:44;36.10;44.40
14850;DHT22;7517;48.400;11.770;2023-06-22T13:38:11;36.10;44.60
14850;DHT22;7517;48.400;11.770;2023-06-22T13:40:40;36.10;44.20
14850;DHT22;7517;48.400;11.770;2023-06-22T13:43:07;36.10;44.10
14850;DHT22;7517;48.400;11.770;2023-06-22T13:45:35;36.10;44.80
14850;DHT22;7517;48.400;11.770;2023-06-22T13:48:03;36.10;45.10
14850;DHT22;7517;48.400;11.770;2023-06-22T13:50:30;36.10;44.60
14850;DHT22;7517;48.400;11.770;2023-06-22T13:52:58;36.10;44.90
14850;DHT22;7517;48.400;11.770;2023-06-22T13:55:26;36.10;45.20
14850;DHT22;7517;48.400;11.770;2023-06-22T13:57:55;36.10;44.70
14850;DHT22;7517;48.400;11.770;2023-06-22T14:00:22;36.10;44.70
14850;DHT22;7517;48.400;11.770;2023-06-22T14:02:50;36.10;44.40
14850;DHT22;7517;48.400;11.770;2023-06-22T14:05:17;36.10;44.00
14850;DHT22;7517;48.400;11.770;2023-06-22T14:07:44;36.10;43.90
14850;DHT22;7517;48.400;11.770;2023-06-22T14:10:12;36.10;44.00
14850;DHT22;7517;48.400;11.770;2023-06-22T14:12:39;36.10;43.90
14850;DHT22;7517;48.400;11.770;2023-06-22T14:15:09;36.20;43.50
14850;DHT22;7517;48.400;11.770;2023-06-22T14:17:36;36.10;44.00
14850;DHT22;7517;48.400;11.770;2023-06-22T14:20:07;36.10;43.80
14850;DHT22;7517;48.400;11.770;2023-06-22T14:22:36;36.20;43.10
14850;DHT22;7517;48.400;11.770;2023-06-22T14:25:06;36.10;42.90
14850;DHT22;7517;48.400;11.770;2023-06-22T14:27:33;36.20;43.20
14850;DHT22;7517;48.400;11.770;2023-06-22T14:30:01;36.20;43.50
14850;DHT22;7517;48.400;11.770;2023-06-22T14:32:30;36.20;43.40
14850;DHT22;7517;48.400;11.770;2023-06-22T14:34:57;36.20;43.30
14850;DHT22;7517;48.400;11.770;2023-06-22T14:37:24;36.20;43.30
14850;DHT22;7517;48.400;11.770;2023-06-22T14:39:52;36.20;42.80
14850;DHT22;7517;48.400;11.770;2023-06-22T14:42:19;36.20;42.60
14850;DHT22;7517;48.400;11.770;2023-06-22T14:44:47;36.20;42.60
14850;DHT22;7517;48.400;11.770;2023-06-22T14:47:18;36.20;42.70
14850;DHT22;7517;48.400;11.770;2023-06-22T14:49:48;36.20;42.50
14850;DHT22;7517;48.400;11.770;2023-06-22T14:52:17;36.20;42.50
14850;DHT22;7517;48.400;11.770;2023-06-22T14:54:45;36.10;42.00
14850;DHT22;7517;48.400;11.770;2023-06-22T14:57:12;36.10;42.20
14850;DHT22;7517;48.400;11.770;2023-06-22T14:59:43;36.10;42.00
14850;DHT22;7517;48.400;11.770;2023-06-22T15:02:10;36.10;42.70
14850;DHT22;7517;48.400;11.770;2023-06-22T15:04:38;36.10;42.40
14850;DHT22;7517;48.400;11.770;2023-06-22T15:07:08;36.10;42.00
14850;DHT22;7517;48.400;11.770;2023-06-22T15:09:36;36.10;42.00
14850;DHT22;7517;48.400;11.770;2023-06-22T15:12:07;36.10;42.40
14850;DHT22;7517;48.400;11.770;2023-06-22T15:14:37;36.10;42.80
14850;DHT22;7517;48.400;11.770;2023-06-22T15:17:06;36.10;42.60
14850;DHT22;7517;48.400;11.770;2023-06-22T15:19:35;36.10;42.20
14850;DHT22;7517;48.400;11.770;2023-06-22T15:22:04;36.10;42.40
14850;DHT22;7517;48.400;11.770;2023-06-22T15:24:36;36.10;42.60
14850;DHT22;7517;48.400;11.770;2023-06-22T15:27:03;36.10;42.70
14850;DHT22;7517;48.400;11.770;2023-06-22T15:29:31;36.10;42.60
14850;DHT22;7517;48.400;11.770;2023-06-22T15:31:59;36.10;42.50
14850;DHT22;7517;48.400;11.770;2023-06-22T15:34:27;36.10;42.50
14850;DHT22;7517;48.400;11.770;2023-06-22T15:36:55;36.10;42.40
14850;DHT22;7517;48.400;11.770;2023-06-22T15:39:23;36.10;42.50